Time;durP1;ratioP1;P1;durP2;ratioP2;P2;SDS_P1;SDS_P2;PMS_P1;PMS_P2;Temp;Humidity;BMP_temperature;BMP_pressure;BME280_temperature;BME280_humidity;BME280_pressure;Samples;Min_cycle;Max_cycle;Signal;HPM_P1;HPM_P2
2022/09/13 13:32:17;;;;;;;5.18;2.85;;;;;;;21.35;68.09;99730.91;5068722;28;20986;-63
2022/09/13 13:34:48;;;;;;;3.25;2.88;;;;;;;21.63;67.19;99713.31;5064994;28;20020;-63
2022/09/13 13:37:13;;;;;;;3.72;3.42;;;;;;;21.74;66.79;99708.53;5041377;28;20033;-63
2022/09/13 13:39:42;;;;;;;3.42;2.80;;;;;;;21.80;66.30;99710.47;5045907;28;20552;-61
2022/09/13 13:42:27;;;;;;;4.63;3.53;;;;;;;21.54;66.64;99697.66;5044669;28;20021;-62
2022/09/13 13:44:52;;;;;;;3.65;3.33;;;;;;;21.31;67.01;99695.91;5030421;28;20055;-61
2022/09/13 13:47:18;;;;;;;4.65;3.08;;;;;;;21.16;67.84;99695.91;5046692;28;20502;-62
2022/09/13 13:49:45;;;;;;;3.42;2.72;;;;;;;21.08;68.00;99696.00;5048485;28;20040;-62
2022/09/13 13:52:10;;;;;;;2.95;2.55;;;;;;;21.04;68.07;99700.03;5040182;28;20099;-62
2022/09/13 13:54:42;;;;;;;5.80;3.13;;;;;;;21.02;68.03;99694.06;5047626;28;20025;-62
2022/09/13 13:57:26;;;;;;;4.95;2.97;;;;;;;20.97;68.25;99697.25;5048482;28;20040;-62
2022/09/13 14:00:20;;;;;;;4.55;3.40;;;;;;;20.92;68.43;99692.50;5030958;28;20028;-62
2022/09/13 14:02:48;;;;;;;5.43;3.53;;;;;;;20.90;68.27;99685.72;5046214;28;20036;-62
2022/09/13 14:05:49;;;;;;;3.65;2.70;;;;;;;20.84;68.55;99681.97;5053548;28;20073;-62
2022/09/13 14:08:25;;;;;;;2.95;2.60;;;;;;;20.80;68.89;99675.34;5048199;28;20028;-62
2022/09/13 14:11:32;;;;;;;4.15;3.17;;;;;;;20.76;68.76;99666.13;5047696;28;20033;-62
2022/09/13 14:14:41;;;;;;;3.97;2.83;;;;;;;20.70;69.03;99666.84;5063501;28;20032;-62
2022/09/13 14:17:44;;;;;;;7.40;3.22;;;;;;;20.71;68.83;99657.88;5036153;28;20132;-62
2022/09/13 14:20:16;;;;;;;3.78;2.90;;;;;;;20.69;68.78;99655.41;5037541;28;20456;-63
2022/09/13 14:22:41;;;;;;;4.90;3.40;;;;;;;20.68;69.08;99659.03;5043030;28;20025;-63
2022/09/13 14:25:18;;;;;;;6.80;3.65;;;;;;;20.69;68.86;99659.91;5043121;28;20029;-63
2022/09/13 14:27:45;;;;;;;4.03;2.85;;;;;;;20.70;68.70;99619.06;5046422;28;20025;-63
2022/09/13 14:30:31;;;;;;;5.43;3.67;;;;;;;20.68;69.04;99618.44;5046799;28;20037;-63
2022/09/13 14:33:00;;;;;;;3.92;3.00;;;;;;;20.69;68.69;99625.41;5023826;28;20055;-63
2022/09/13 14:35:31;;;;;;;5.50;3.95;;;;;;;20.69;69.13;99634.16;5047135;28;20367;-63
2022/09/13 14:38:35;;;;;;;3.53;3.20;;;;;;;20.67;69.11;99632.72;5043955;28;20025;-63
2022/09/13 14:41:14;;;;;;;;;;;;;;;20.68;69.48;99629.03;5024454;28;20040;-63
2022/09/13 14:43:43;;;;;;;4.15;2.75;;;;;;;20.67;69.85;99622.91;5030879;28;20007;-63
2022/09/13 14:46:23;;;;;;;3.88;3.03;;;;;;;20.67;69.56;99614.16;5034271;28;20058;-63
2022/09/13 14:48:52;;;;;;;3.38;2.70;;;;;;;20.66;69.21;99612.47;5033807;28;20508;-63
2022/09/13 14:51:27;;;;;;;6.70;2.55;;;;;;;20.64;69.97;99609.19;5030763;28;20022;-63
2022/09/13 14:54:28;;;;;;;3.65;3.00;;;;;;;20.62;70.47;99598.75;5031485;28;20025;-63
2022/09/13 14:56:59;;;;;;;4.07;2.80;;;;;;;20.63;70.56;99602.22;5048749;28;20053;-63
2022/09/13 14:59:36;;;;;;;3.80;2.95;;;;;;;20.62;70.59;99596.09;5032383;28;20052;-63
2022/09/13 15:02:19;;;;;;;3.33;3.03;;;;;;;20.65;70.81;99594.91;5026349;28;20021;-63
2022/09/13 15:04:50;;;;;;;4.03;3.20;;;;;;;20.65;70.21;99594.91;5032794;28;20033;-63
2022/09/13 15:07:36;;;;;;;5.50;3.08;;;;;;;20.66;70.68;99586.75;5025750;28;20025;-63
2022/09/13 15:10:11;;;;;;;3.63;3.30;;;;;;;20.65;70.60;99584.28;5027843;28;20036;-63
2022/09/13 15:12:47;;;;;;;6.32;3.50;;;;;;;20.64;71.29;99585.31;5025458;28;20025;-64
2022/09/13 15:15:18;;;;;;;10.93;3.15;;;;;;;20.60;71.69;99576.03;5019521;28;20030;-64
2022/09/13 15:17:59;;;;;;;4.63;3.72;;;;;;;20.59;71.26;99567.25;5032265;28;20033;-63
2022/09/13 15:20:27;;;;;;;4.35;3.00;;;;;;;20.59;71.27;99566.44;5026221;28;20548;-63
2022/09/13 15:22:53;;;;;;;3.30;3.00;;;;;;;20.60;71.61;99565.41;5028105;28;20083;-64
2022/09/13 15:25:37;;;;;;;7.82;3.78;;;;;;;20.58;71.95;99560.28;5023506;28;20410;-64
2022/09/13 15:28:02;;;;;;;4.03;3.30;;;;;;;20.60;71.80;99557.44;5027747;28;20053;-63
2022/09/13 15:30:30;;;;;;;5.32;3.10;;;;;;;20.58;71.43;99554.97;5026040;28;20398;-64
2022/09/13 15:33:08;;;;;;;4.88;3.50;;;;;;;20.58;71.97;99552.31;5021146;28;20033;-65
2022/09/13 15:35:43;;;;;;;3.25;2.83;;;;;;;20.57;72.54;99544.56;5051563;22;20071;-67
2022/09/13 15:38:22;;;;;;;4.50;3.28;;;;;;;20.56;72.15;99551.69;5049960;28;20107;-67
2022/09/13 15:41:03;;;;;;;3.15;2.85;;;;;;;20.55;72.65;99548.22;5049759;28;20021;-66
2022/09/13 15:43:32;;;;;;;4.60;3.70;;;;;;;20.55;72.46;99548.22;5049275;28;20060;-66
2022/09/13 15:45:58;;;;;;;4.20;3.30;;;;;;;20.54;72.55;99535.94;5057835;28;20569;-67
2022/09/13 15:48:30;;;;;;;3.60;3.30;;;;;;;20.53;72.16;99529.00;5070359;28;20661;-67
2022/09/13 15:51:13;;;;;;;3.25;2.92;;;;;;;20.55;72.65;99523.53;5066560;28;20020;-67
2022/09/13 15:53:43;;;;;;;3.67;3.28;;;;;;;20.54;72.36;99517.38;5066020;28;20028;-67
2022/09/13 15:56:16;;;;;;;3.10;2.67;;;;;;;20.55;72.79;99520.88;5053541;28;20036;-67
2022/09/13 15:58:44;;;;;;;4.32;3.20;;;;;;;20.55;71.99;99519.03;5066409;28;20385;-67
2022/09/13 16:01:14;;;;;;;4.13;3.35;;;;;;;20.57;72.42;99515.38;5058742;28;20029;-66
2022/09/13 16:03:40;;;;;;;4.15;3.42;;;;;;;20.55;72.69;99508.41;5067217;28;20024;-66
2022/09/13 16:06:08;;;;;;;3.80;3.42;;;;;;;20.54;71.69;99498.81;5061127;28;20115;-67
2022/09/13 16:08:34;;;;;;;3.53;3.22;;;;;;;20.55;72.29;99511.06;5070655;28;20032;-66
2022/09/13 16:10:59;;;;;;;3.58;3.28;;;;;;;20.55;72.57;99508.41;5064499;28;20509;-67
2022/09/13 16:13:26;;;;;;;3.05;2.75;;;;;;;20.53;72.16;99501.63;5061158;28;20041;-67
2022/09/13 16:15:52;;;;;;;3.47;3.13;;;;;;;20.51;72.60;99493.03;5061154;28;20032;-67
2022/09/13 16:18:17;;;;;;;3.75;3.45;;;;;;;20.49;72.78;99493.22;5065181;28;20024;-66
2022/09/13 16:20:44;;;;;;;3.58;3.13;;;;;;;20.49;72.68;99497.72;5061383;28;20021;-66
2022/09/13 16:23:11;;;;;;;3.78;3.40;;;;;;;20.50;73.27;99504.69;5064211;28;20048;-66
2022/09/13 16:25:37;;;;;;;5.22;4.05;;;;;;;20.48;73.13;99494.25;5057308;28;20048;-66
2022/09/13 16:28:14;;;;;;;3.25;2.95;;;;;;;20.46;72.98;99498.91;5056876;28;20036;-66
2022/09/13 16:30:40;;;;;;;3.30;3.00;;;;;;;20.46;72.93;99488.31;5062708;28;20029;-67
2022/09/13 16:33:08;;;;;;;3.00;2.65;;;;;;;20.45;73.03;99489.31;5065710;28;20471;-66
2022/09/13 16:35:33;;;;;;;3.42;3.13;;;;;;;20.45;73.92;99496.44;5069980;28;20511;-66
2022/09/13 16:38:00;;;;;;;3.50;3.20;;;;;;;20.43;73.89;99493.97;5066542;28;20024;-66
2022/09/13 16:40:26;;;;;;;6.60;3.97;;;;;;;20.42;73.63;99484.34;5053707;28;20059;-66
2022/09/13 16:42:53;;;;;;;3.58;3.28;;;;;;;20.40;73.47;99483.72;5066879;28;20056;-66
2022/09/13 16:45:21;;;;;;;4.07;3.53;;;;;;;20.40;73.18;99486.38;5056739;28;20486;-66
2022/09/13 16:47:47;;;;;;;3.45;3.15;;;;;;;20.40;73.59;99477.59;5060754;28;20474;-66
2022/09/13 16:50:13;;;;;;;3.75;3.05;;;;;;;20.40;74.32;99485.56;5066914;28;20064;-66
2022/09/13 16:52:38;;;;;;;3.10;2.78;;;;;;;20.40;73.83;99485.56;5060248;28;20448;-66
2022/09/13 16:55:07;;;;;;;3.78;3.30;;;;;;;20.38;73.66;99477.78;5065489;28;20029;-75
2022/09/13 16:57:37;;;;;;;3.90;3.50;;;;;;;20.35;73.96;99468.34;5061278;28;20043;-67
2022/09/13 17:00:08;;;;;;;4.38;3.72;;;;;;;20.35;73.89;99471.00;5067277;28;20116;-66
2022/09/13 17:02:33;;;;;;;3.33;3.03;;;;;;;20.35;74.16;99473.66;5063361;28;20032;-67
2022/09/13 17:04:59;;;;;;;3.72;3.00;;;;;;;20.34;74.00;99468.53;5058911;28;20475;-66
2022/09/13 17:07:24;;;;;;;4.72;2.95;;;;;;;20.33;73.79;99472.22;5062839;28;20025;-66
2022/09/13 17:09:50;;;;;;;5.30;3.17;;;;;;;20.34;73.82;99476.50;5063764;28;20111;-66
2022/09/13 17:12:15;;;;;;;3.10;2.78;;;;;;;20.33;73.70;99464.25;5065732;28;20479;-72
2022/09/13 17:14:44;;;;;;;4.32;3.30;;;;;;;20.38;73.35;99464.53;5065342;28;20066;-67
2022/09/13 17:17:09;;;;;;;4.57;3.60;;;;;;;20.37;73.07;99462.88;5069071;28;20435;-66
2022/09/13 17:19:37;;;;;;;5.53;2.97;;;;;;;20.36;74.25;99472.66;5065391;28;20020;-66
2022/09/13 17:22:06;;;;;;;9.90;3.38;;;;;;;20.33;73.84;99475.69;5058473;28;20031;-66
2022/09/13 17:24:36;;;;;;;3.85;2.85;;;;;;;20.32;74.77;99476.66;5068006;28;20024;-66
2022/09/13 17:27:05;;;;;;;5.30;2.70;;;;;;;20.31;74.77;99476.84;5064325;28;20048;-66
2022/09/13 17:31:23;;;;;;;6.22;3.25;;;;;;;20.28;74.52;99478.06;5067380;27;20391;-65
2022/09/13 17:33:52;;;;;;;3.78;3.08;;;;;;;20.26;74.57;99484.53;5012931;28;20041;-66
2022/09/13 17:36:21;;;;;;;3.50;2.65;;;;;;;20.26;75.16;99480.06;5042788;28;20381;-66
2022/09/13 17:38:56;;;;;;;3.25;2.90;;;;;;;20.26;74.99;99479.22;5041613;28;20662;-65
2022/09/13 17:41:23;;;;;;;;;;;;;;;20.26;74.67;99487.19;5048895;28;20041;-66
2022/09/13 17:43:53;;;;;;;3.90;3.10;;;;;;;20.27;74.61;99481.69;5045498;28;19913;-66
2022/09/13 17:46:21;;;;;;;3.50;3.13;;;;;;;20.25;74.42;99481.06;5049562;28;20036;-66
2022/09/13 17:48:53;;;;;;;4.28;3.13;;;;;;;20.23;74.37;99464.50;5004775;28;20037;-66
2022/09/13 17:51:22;;;;;;;4.63;3.50;;;;;;;20.23;73.58;99463.69;5043186;28;20040;-66
2022/09/13 17:53:54;;;;;;;4.00;3.60;;;;;;;20.21;73.77;99450.63;5022777;28;20037;-66
2022/09/13 17:56:24;;;;;;;4.00;3.42;;;;;;;20.22;74.43;99464.69;5020263;28;20497;-66
2022/09/13 17:58:51;;;;;;;3.88;2.80;;;;;;;20.20;74.21;99456.09;5047277;28;20394;-66
2022/09/13 18:01:19;;;;;;;5.60;4.10;;;;;;;20.21;74.46;99457.72;5045622;28;20390;-66
2022/09/13 18:03:48;;;;;;;5.32;3.53;;;;;;;20.18;74.36;99449.13;4997450;28;20562;-66
2022/09/13 18:06:14;;;;;;;6.15;3.10;;;;;;;20.17;74.71;99446.66;5026627;28;20506;-66
2022/09/13 18:08:43;;;;;;;3.20;2.90;;;;;;;20.15;74.72;99452.16;5046187;28;20493;-65
2022/09/13 18:11:14;;;;;;;3.65;3.08;;;;;;;20.15;74.88;99446.84;5036978;28;20606;-65
2022/09/13 18:13:42;;;;;;;4.53;2.75;;;;;;;20.15;74.45;99454.81;5046674;28;20528;-66
2022/09/13 18:16:14;;;;;;;3.72;3.08;;;;;;;20.14;75.04;99447.88;5029371;28;20044;-66
2022/09/13 18:18:41;;;;;;;3.78;3.42;;;;;;;20.13;74.62;99453.34;5044966;28;20390;-66
2022/09/13 18:21:13;;;;;;;4.43;2.85;;;;;;;20.13;74.75;99456.00;5038497;28;20489;-66
2022/09/13 18:23:43;;;;;;;4.15;3.67;;;;;;;20.12;75.17;99449.88;5032765;28;20053;-67
2022/09/13 18:26:12;;;;;;;4.05;3.50;;;;;;;20.12;75.24;99452.53;5043172;28;20041;-66
2022/09/13 18:28:44;;;;;;;3.33;2.88;;;;;;;20.13;74.74;99448.88;5047974;28;20073;-66
2022/09/13 18:31:16;;;;;;;7.20;3.10;;;;;;;20.12;74.54;99452.53;5053214;28;20029;-66
2022/09/13 18:33:46;;;;;;;3.88;3.58;;;;;;;20.11;74.70;99461.47;5036093;28;20042;-66
2022/09/13 18:36:21;;;;;;;5.47;3.38;;;;;;;20.10;74.70;99465.13;5036004;28;20040;-65
2022/09/13 18:38:50;;;;;;;4.05;3.33;;;;;;;20.09;75.25;99468.00;5036730;28;20033;-66
2022/09/13 18:41:24;;;;;;;8.45;3.60;;;;;;;20.09;74.98;99470.63;5029520;28;20661;-66
2022/09/13 18:43:53;;;;;;;3.33;3.03;;;;;;;20.08;75.01;99475.09;5032061;28;20029;-66
2022/09/13 18:46:30;;;;;;;4.55;3.47;;;;;;;20.07;74.76;99476.13;5033427;28;20037;-66
2022/09/13 18:48:57;;;;;;;5.72;3.70;;;;;;;20.07;74.92;99481.41;5024049;28;20045;-66
2022/09/13 18:51:31;;;;;;;5.70;3.20;;;;;;;20.07;74.98;99480.56;5032693;28;20415;-66
2022/09/13 18:54:00;;;;;;;3.20;2.90;;;;;;;20.06;74.71;99489.56;5019254;28;20038;-66
2022/09/13 18:56:29;;;;;;;3.13;2.83;;;;;;;20.06;74.51;99493.00;5033041;28;20037;-66
2022/09/13 18:58:59;;;;;;;7.40;3.45;;;;;;;20.05;74.60;99486.06;5012436;28;20069;-66
2022/09/13 19:01:28;;;;;;;6.47;3.03;;;;;;;20.05;74.87;99490.53;5030198;28;20479;-66
2022/09/13 19:03:58;;;;;;;5.32;3.45;;;;;;;20.05;74.56;99490.53;5023176;28;20406;-66
2022/09/13 19:06:30;;;;;;;5.50;3.30;;;;;;;20.04;74.84;99476.47;5011787;28;20375;-66
2022/09/13 19:09:01;;;;;;;3.50;3.15;;;;;;;20.03;74.86;99481.94;5019637;28;20033;-66
2022/09/13 19:11:32;;;;;;;3.85;3.35;;;;;;;20.02;74.74;99475.84;5015287;28;20048;-66
2022/09/13 19:14:04;;;;;;;3.53;2.88;;;;;;;20.02;74.86;99475.84;4999688;28;20384;-66
2022/09/13 19:16:33;;;;;;;4.32;2.78;;;;;;;20.01;74.82;99479.47;5016007;28;20498;-66
2022/09/13 19:19:00;;;;;;;4.43;4.03;;;;;;;20.00;74.87;99480.47;5023298;28;20040;-66
2022/09/13 19:21:31;;;;;;;5.70;3.20;;;;;;;20.00;74.88;99480.47;5021941;28;20042;-66
2022/09/13 19:24:02;;;;;;;3.80;3.42;;;;;;;19.99;75.09;99473.53;5031254;28;20040;-66
2022/09/13 19:26:36;;;;;;;4.30;3.25;;;;;;;19.98;74.90;99463.94;5008570;28;20398;-66
2022/09/13 19:29:07;;;;;;;3.67;3.03;;;;;;;19.98;74.71;99471.88;4999183;28;20034;-66
2022/09/13 19:31:46;;;;;;;4.03;3.63;;;;;;;19.97;74.66;99475.56;5023440;28;20041;-66
2022/09/13 19:34:17;;;;;;;7.47;3.15;;;;;;;19.98;74.61;99471.88;5032879;28;20033;-66
2022/09/13 19:36:43;;;;;;;5.63;3.85;;;;;;;19.97;75.20;99473.72;5016777;28;20041;-66
2022/09/13 19:39:12;;;;;;;4.28;3.85;;;;;;;19.98;75.06;99474.53;5016346;28;20033;-66
2022/09/13 19:41:40;;;;;;;4.28;3.88;;;;;;;19.97;75.23;99475.56;5044248;28;20033;-66
2022/09/13 19:44:11;;;;;;;4.10;3.72;;;;;;;19.95;75.17;99475.72;5023465;28;20025;-66
2022/09/13 19:46:39;;;;;;;3.97;3.58;;;;;;;19.95;74.70;99467.78;5037553;28;20406;-66
2022/09/13 19:49:11;;;;;;;3.30;2.97;;;;;;;19.95;75.22;99480.19;5030480;28;20492;-66
2022/09/13 19:51:38;;;;;;;3.67;3.38;;;;;;;19.95;74.88;99480.19;5001570;28;20040;-66
2022/09/13 19:54:11;;;;;;;3.70;3.30;;;;;;;19.95;74.57;99477.53;5050897;28;20037;-66
2022/09/13 19:56:41;;;;;;;4.20;2.90;;;;;;;19.94;74.91;99467.94;5043417;28;20037;-66
2022/09/13 19:59:10;;;;;;;3.67;3.25;;;;;;;19.94;74.94;99473.25;5033217;28;20414;-66
2022/09/13 20:01:39;;;;;;;3.80;3.47;;;;;;;19.93;75.09;99471.59;4997535;28;20044;-66
2022/09/13 20:04:11;;;;;;;4.88;3.28;;;;;;;19.93;75.04;99471.59;5015384;28;20517;-65
2022/09/13 20:06:43;;;;;;;3.60;3.08;;;;;;;19.92;75.00;99470.78;5021820;28;20041;-66
2022/09/13 20:09:14;;;;;;;5.78;3.33;;;;;;;19.92;74.86;99477.91;5031306;28;20055;-66
2022/09/13 20:11:47;;;;;;;4.13;3.40;;;;;;;19.91;74.76;99468.31;5019208;28;20025;-66
2022/09/13 20:14:16;;;;;;;4.80;3.47;;;;;;;19.92;74.89;99477.91;5036729;28;20078;-66
2022/09/13 20:16:46;;;;;;;4.43;3.50;;;;;;;19.91;75.19;99534.56;5038096;28;20036;-66
2022/09/13 20:19:18;;;;;;;4.05;3.40;;;;;;;19.91;74.88;99476.25;5027352;28;20470;-66
2022/09/13 20:21:48;;;;;;;4.00;3.60;;;;;;;19.90;75.17;99482.56;5038962;28;20483;-65
2022/09/13 20:24:17;;;;;;;2.88;2.58;;;;;;;19.89;75.07;99487.03;5024501;28;20041;-65
2022/09/13 20:26:46;;;;;;;3.25;2.95;;;;;;;19.91;75.41;99484.22;5010363;28;20042;-66
2022/09/13 20:29:13;;;;;;;7.15;4.00;;;;;;;19.89;75.20;99484.38;5013518;28;20136;-66
2022/09/13 20:31:42;;;;;;;4.75;3.80;;;;;;;19.89;75.28;99488.88;5026875;28;20390;-66
2022/09/13 20:34:13;;;;;;;3.88;3.33;;;;;;;19.88;75.20;99481.91;5039277;28;20033;-66
2022/09/13 20:36:42;;;;;;;3.47;3.15;;;;;;;19.88;75.17;99479.25;5033866;28;20037;-66
2022/09/13 20:39:09;;;;;;;4.65;4.18;;;;;;;19.87;75.49;99477.63;5018866;28;20045;-66
2022/09/13 20:41:42;;;;;;;4.90;3.00;;;;;;;19.88;75.35;99481.91;5033214;28;20030;-65
2022/09/13 20:44:11;;;;;;;3.90;3.50;;;;;;;19.88;75.01;99481.91;5018774;28;20390;-66
2022/09/13 20:46:39;;;;;;;8.10;3.38;;;;;;;19.87;75.15;99478.44;5037590;28;20044;-66
2022/09/13 20:49:09;;;;;;;4.22;3.47;;;;;;;19.87;75.24;99474.97;5019460;28;20033;-66
2022/09/13 20:51:36;;;;;;;4.75;3.42;;;;;;;19.88;75.09;99479.25;5005131;28;20029;-66
2022/09/13 20:54:09;;;;;;;4.95;4.38;;;;;;;19.87;74.88;99474.97;5017345;28;20041;-66
2022/09/13 20:56:39;;;;;;;4.53;3.53;;;;;;;19.88;75.47;99473.97;5033392;28;20064;-66
2022/09/13 20:59:07;;;;;;;4.80;3.08;;;;;;;19.86;75.55;99463.53;5055980;28;20041;-66
2022/09/13 21:01:33;;;;;;;3.38;3.08;;;;;;;19.86;74.96;99452.13;5016022;28;20039;-66
2022/09/13 21:04:03;;;;;;;7.70;3.72;;;;;;;19.83;75.40;99458.63;5026582;28;20029;-66
2022/09/13 21:06:35;;;;;;;4.07;3.38;;;;;;;19.83;75.48;99457.78;5012112;28;20509;-66
2022/09/13 21:09:03;;;;;;;3.33;3.00;;;;;;;19.83;75.45;99450.66;5035205;28;20067;-66
2022/09/13 21:11:34;;;;;;;6.28;3.38;;;;;;;19.84;75.65;99454.94;5029592;28;20029;-66
2022/09/13 21:14:07;;;;;;;3.65;2.67;;;;;;;19.84;75.92;99460.25;5035583;28;20030;-66
2022/09/13 21:16:39;;;;;;;6.28;3.70;;;;;;;19.85;75.40;99459.25;5026093;28;20039;-66
2022/09/13 21:19:10;;;;;;;4.00;3.00;;;;;;;19.85;75.27;99459.25;5031985;28;20498;-66
2022/09/13 21:21:38;;;;;;;6.38;4.50;;;;;;;19.85;75.21;99464.56;5035995;28;20037;-66
2022/09/13 21:24:10;;;;;;;4.68;3.42;;;;;;;19.85;75.58;99458.41;5037732;28;20033;-66
2022/09/13 21:26:41;;;;;;;4.65;3.40;;;;;;;19.85;75.48;99461.06;5028781;28;20041;-66
2022/09/13 21:29:11;;;;;;;7.88;3.40;;;;;;;19.84;75.18;99459.44;5043254;28;20076;-66
2022/09/13 21:31:42;;;;;;;3.47;2.60;;;;;;;19.84;75.14;99456.78;5029736;28;20041;-66
2022/09/13 21:34:17;;;;;;;5.75;3.55;;;;;;;19.82;75.47;99451.66;5025610;28;20052;-66
2022/09/13 21:36:46;;;;;;;3.03;2.65;;;;;;;19.82;75.01;99445.56;5048429;22;20041;-59
2022/09/13 21:39:15;;;;;;;6.95;3.72;;;;;;;19.81;75.44;99431.47;5048949;28;20037;-59
2022/09/13 21:41:43;;;;;;;3.20;2.90;;;;;;;19.81;75.79;99431.47;5031111;28;20053;-59
2022/09/13 21:44:09;;;;;;;3.78;3.38;;;;;;;19.82;75.70;99429.66;5049566;28;20099;-59
2022/09/13 21:46:39;;;;;;;4.95;3.22;;;;;;;19.82;76.06;99429.66;5063373;28;20029;-59
2022/09/13 21:49:08;;;;;;;4.75;3.28;;;;;;;19.81;75.86;99426.16;5051442;28;20063;-59
2022/09/13 21:51:36;;;;;;;5.28;2.80;;;;;;;19.80;75.69;99416.56;5070043;28;20048;-59
2022/09/13 21:54:06;;;;;;;4.25;3.08;;;;;;;19.80;75.89;99422.69;5049822;28;20032;-59
2022/09/13 21:56:37;;;;;;;3.88;2.92;;;;;;;19.79;75.41;99418.38;5070162;28;20395;-60
2022/09/13 21:59:10;;;;;;;3.92;2.90;;;;;;;19.79;75.60;99410.44;5066844;28;20493;-59
2022/09/13 22:01:38;;;;;;;2.88;2.58;;;;;;;19.79;75.66;99421.03;5068719;28;20028;-59
2022/09/13 22:04:06;;;;;;;4.20;3.08;;;;;;;19.78;75.31;99408.81;5067666;28;20036;-59
2022/09/13 22:06:35;;;;;;;6.57;2.97;;;;;;;19.80;75.36;99416.56;5052300;28;20040;-59
2022/09/13 22:09:05;;;;;;;4.95;3.25;;;;;;;19.79;75.57;99413.09;5047787;28;20028;-59
2022/09/13 22:11:37;;;;;;;4.93;3.38;;;;;;;19.78;75.86;99416.75;5069285;28;20052;-59
2022/09/13 22:14:06;;;;;;;2.78;2.42;;;;;;;19.78;75.63;99411.47;5050664;28;20036;-59
2022/09/13 22:16:39;;;;;;;3.10;2.72;;;;;;;19.78;75.62;99410.63;5069397;28;20036;-60
2022/09/13 22:19:17;;;;;;;3.28;2.90;;;;;;;19.78;75.63;99410.63;5053757;28;20410;-59
2022/09/13 22:21:48;;;;;;;4.28;2.90;;;;;;;19.78;75.81;99408.81;5072815;28;20028;-59
2022/09/13 22:24:18;;;;;;;3.67;3.38;;;;;;;19.77;75.60;99399.19;5072270;28;20049;-59
2022/09/13 22:26:47;;;;;;;3.70;3.30;;;;;;;19.78;75.70;99392.91;5035942;28;20506;-59
2022/09/13 22:29:14;;;;;;;4.25;2.83;;;;;;;19.77;75.56;99388.59;5054094;28;20051;-59
2022/09/13 22:31:43;;;;;;;4.47;3.00;;;;;;;19.76;75.81;99372.88;5071749;28;20044;-59
2022/09/13 22:34:15;;;;;;;2.90;2.58;;;;;;;19.78;75.50;99377.00;5037308;28;20033;-59
2022/09/13 22:36:41;;;;;;;2.95;2.50;;;;;;;19.76;75.68;99373.72;5054496;28;20047;-59
2022/09/13 22:39:11;;;;;;;5.25;3.70;;;;;;;19.76;75.42;99365.78;5053543;28;20032;-59
2022/09/13 22:41:38;;;;;;;3.08;2.63;;;;;;;19.76;75.55;99356.97;5055174;28;20033;-59
2022/09/13 22:44:04;;;;;;;3.70;3.40;;;;;;;19.76;75.34;99360.47;5070007;28;20043;-59
2022/09/13 22:46:36;;;;;;;4.13;3.10;;;;;;;19.76;75.22;99357.81;5047798;28;20579;-59
2022/09/13 22:49:03;;;;;;;3.72;2.92;;;;;;;19.75;75.32;99352.72;5065457;28;20482;-59
2022/09/13 22:51:30;;;;;;;4.60;4.20;;;;;;;19.75;75.25;99356.16;5038761;28;20053;-59
2022/09/13 22:53:59;;;;;;;9.98;2.90;;;;;;;19.75;75.32;99361.47;5070381;28;20469;-59
2022/09/13 22:56:30;;;;;;;2.92;2.63;;;;;;;19.76;75.76;99359.63;5050974;28;20036;-59
2022/09/13 22:59:17;;;;;;;3.70;3.17;;;;;;;19.77;75.46;99369.25;5069893;28;20690;-59
2022/09/13 23:01:43;;;;;;;3.67;2.50;;;;;;;19.75;74.99;99360.66;5053984;28;20032;-59
2022/09/13 23:04:10;;;;;;;3.05;2.47;;;;;;;19.74;74.95;99351.88;5071089;28;20035;-59
2022/09/13 23:06:39;;;;;;;3.90;3.10;;;;;;;19.73;75.04;99342.25;5071019;28;20029;-59
2022/09/13 23:09:07;;;;;;;3.90;2.55;;;;;;;19.75;75.02;99334.16;5053749;28;20051;-59
2022/09/13 23:11:38;;;;;;;3.67;3.10;;;;;;;19.76;75.52;99333.13;5053863;28;20041;-59
2022/09/13 23:14:08;;;;;;;5.20;2.33;;;;;;;19.75;75.43;99319.06;5068082;28;20398;-59
2022/09/13 23:16:37;;;;;;;3.80;2.88;;;;;;;19.74;75.39;99314.78;5069578;28;20043;-59
2022/09/13 23:19:07;;;;;;;4.28;3.15;;;;;;;19.74;75.46;99303.31;5035327;28;20032;-59
2022/09/13 23:21:34;;;;;;;4.50;3.45;;;;;;;19.72;75.97;99306.16;5054135;28;20097;-60
2022/09/13 23:24:03;;;;;;;2.72;2.45;;;;;;;19.73;75.79;99307.81;5069389;28;20032;-59
2022/09/13 23:26:30;;;;;;;3.70;2.45;;;;;;;19.72;75.47;99308.81;5070567;28;20048;-59
2022/09/13 23:28:58;;;;;;;3.55;2.65;;;;;;;19.74;75.37;99317.41;5052576;28;20047;-59
2022/09/13 23:31:30;;;;;;;4.13;3.22;;;;;;;19.74;75.72;99317.41;5051101;28;20398;-59
2022/09/13 23:34:02;;;;;;;4.25;2.75;;;;;;;19.74;75.07;99313.94;5035790;28;20043;-59
2022/09/13 23:36:33;;;;;;;3.38;3.08;;;;;;;19.74;75.18;99316.56;5034125;28;20032;-59
2022/09/13 23:39:03;;;;;;;3.95;2.20;;;;;;;19.75;75.29;99323.56;5052704;28;20036;-59
2022/09/13 23:41:30;;;;;;;3.25;2.60;;;;;;;19.75;75.50;99316.44;5061715;28;20036;-59
2022/09/13 23:43:59;;;;;;;4.07;2.70;;;;;;;19.73;75.01;99321.06;5050720;28;20032;-59
2022/09/13 23:46:25;;;;;;;6.22;3.75;;;;;;;19.74;75.43;99322.72;5072261;28;20432;-59
2022/09/13 23:48:53;;;;;;;3.35;3.05;;;;;;;19.74;75.28;99321.88;5070009;28;20417;-59
2022/09/13 23:51:22;;;;;;;6.32;2.58;;;;;;;19.74;75.15;99330.66;5070022;28;20037;-59
2022/09/13 23:53:49;;;;;;;3.17;2.75;;;;;;;19.74;74.74;99333.31;5052667;28;20044;-59
2022/09/13 23:56:18;;;;;;;3.25;2.95;;;;;;;19.75;75.32;99328.84;5070889;28;20044;-59
2022/09/13 23:58:45;;;;;;;8.80;3.50;;;;;;;19.73;75.16;99331.66;5053573;28;20036;-59
